sensor_id;sensor_type;location;lat;lon;timestamp;temperature;humidity
5743;DHT22;2896;53.500;10.020;2022-07-22T00:02:27;19.10;54.90
5743;DHT22;2896;53.500;10.020;2022-07-22T00:04:53;19.10;74.20
5743;DHT22;2896;53.500;10.020;2022-07-22T00:07:20;19.10;54.70
5743;DHT22;2896;53.500;10.020;2022-07-22T00:09:46;19.10;94.10
5743;DHT22;2896;53.500;10.020;2022-07-22T00:12:13;19.10;99.90
5743;DHT22;2896;53.500;10.020;2022-07-22T00:14:40;19.10;99.90
5743;DHT22;2896;53.500;10.020;2022-07-22T00:17:07;19.10;99.90
5743;DHT22;2896;53.500;10.020;2022-07-22T00:19:35;19.10;99.90
5743;DHT22;2896;53.500;10.020;2022-07-22T00:22:02;19.10;99.90
5743;DHT22;2896;53.500;10.020;2022-07-22T00:24:29;19.00;99.90
5743;DHT22;2896;53.500;10.020;2022-07-22T00:26:56;19.10;99.90
5743;DHT22;2896;53.500;10.020;2022-07-22T00:29:22;19.10;99.90
5743;DHT22;2896;53.500;10.020;2022-07-22T00:31:49;19.10;99.90
5743;DHT22;2896;53.500;10.020;2022-07-22T00:34:15;19.00;99.90
5743;DHT22;2896;53.500;10.020;2022-07-22T00:36:43;19.00;1.00
5743;DHT22;2896;53.500;10.020;2022-07-22T00:39:10;18.90;1.00
5743;DHT22;2896;53.500;10.020;2022-07-22T00:41:37;18.80;1.00
5743;DHT22;2896;53.500;10.020;2022-07-22T00:44:05;18.60;1.00
5743;DHT22;2896;53.500;10.020;2022-07-22T00:46:34;18.50;1.00
5743;DHT22;2896;53.500;10.020;2022-07-22T00:49:03;18.40;1.00
5743;DHT22;2896;53.500;10.020;2022-07-22T00:51:31;18.50;1.00
5743;DHT22;2896;53.500;10.020;2022-07-22T00:53:59;18.40;1.00
5743;DHT22;2896;53.500;10.020;2022-07-22T00:56:28;18.30;1.00
5743;DHT22;2896;53.500;10.020;2022-07-22T00:58:57;18.40;1.00
5743;DHT22;2896;53.500;10.020;2022-07-22T01:01:24;18.30;1.00
5743;DHT22;2896;53.500;10.020;2022-07-22T01:03:51;18.20;1.00
5743;DHT22;2896;53.500;10.020;2022-07-22T01:06:18;18.20;1.00
5743;DHT22;2896;53.500;10.020;2022-07-22T01:08:45;18.20;1.00
5743;DHT22;2896;53.500;10.020;2022-07-22T01:11:14;18.20;1.00
5743;DHT22;2896;53.500;10.020;2022-07-22T01:13:43;18.00;1.00
5743;DHT22;2896;53.500;10.020;2022-07-22T01:16:11;18.00;1.00
5743;DHT22;2896;53.500;10.020;2022-07-22T01:18:38;18.00;1.00
5743;DHT22;2896;53.500;10.020;2022-07-22T01:21:08;18.00;1.00
5743;DHT22;2896;53.500;10.020;2022-07-22T01:23:35;18.00;1.00
5743;DHT22;2896;53.500;10.020;2022-07-22T01:26:03;18.00;1.00
5743;DHT22;2896;53.500;10.020;2022-07-22T01:28:30;17.90;1.00
5743;DHT22;2896;53.500;10.020;2022-07-22T01:30:56;17.80;1.00
5743;DHT22;2896;53.500;10.020;2022-07-22T01:33:23;17.80;1.00
5743;DHT22;2896;53.500;10.020;2022-07-22T01:35:51;17.70;1.00
5743;DHT22;2896;53.500;10.020;2022-07-22T01:38:20;17.70;1.00
5743;DHT22;2896;53.500;10.020;2022-07-22T01:40:46;17.70;1.00
5743;DHT22;2896;53.500;10.020;2022-07-22T01:43:13;17.60;1.00
5743;DHT22;2896;53.500;10.020;2022-07-22T01:45:44;17.60;1.00
5743;DHT22;2896;53.500;10.020;2022-07-22T01:48:10;17.60;1.00
5743;DHT22;2896;53.500;10.020;2022-07-22T01:50:38;17.50;1.00
5743;DHT22;2896;53.500;10.020;2022-07-22T01:53:04;17.50;99.90
5743;DHT22;2896;53.500;10.020;2022-07-22T01:55:32;17.40;1.00
5743;DHT22;2896;53.500;10.020;2022-07-22T01:57:59;17.40;99.90
5743;DHT22;2896;53.500;10.020;2022-07-22T02:00:26;17.20;1.00
5743;DHT22;2896;53.500;10.020;2022-07-22T02:02:53;17.30;1.00
5743;DHT22;2896;53.500;10.020;2022-07-22T02:05:19;17.20;1.00
5743;DHT22;2896;53.500;10.020;2022-07-22T02:07:48;17.10;99.90
5743;DHT22;2896;53.500;10.020;2022-07-22T02:10:14;17.10;99.90
5743;DHT22;2896;53.500;10.020;2022-07-22T02:12:42;17.00;1.00
5743;DHT22;2896;53.500;10.020;2022-07-22T02:15:10;17.00;1.00
5743;DHT22;2896;53.500;10.020;2022-07-22T02:17:37;17.10;99.90
5743;DHT22;2896;53.500;10.020;2022-07-22T02:20:04;17.00;99.90
5743;DHT22;2896;53.500;10.020;2022-07-22T02:22:31;16.90;99.90
5743;DHT22;2896;53.500;10.020;2022-07-22T02:24:58;17.00;99.90
5743;DHT22;2896;53.500;10.020;2022-07-22T02:27:24;16.90;99.90
5743;DHT22;2896;53.500;10.020;2022-07-22T02:29:52;16.90;99.90
5743;DHT22;2896;53.500;10.020;2022-07-22T02:32:19;16.90;99.90
5743;DHT22;2896;53.500;10.020;2022-07-22T02:34:45;16.90;99.90
5743;DHT22;2896;53.500;10.020;2022-07-22T02:37:12;16.80;99.90
5743;DHT22;2896;53.500;10.020;2022-07-22T02:39:39;16.90;99.90
5743;DHT22;2896;53.500;10.020;2022-07-22T02:42:05;16.90;99.90
5743;DHT22;2896;53.500;10.020;2022-07-22T02:44:32;16.80;99.90
5743;DHT22;2896;53.500;10.020;2022-07-22T02:47:00;16.90;99.90
5743;DHT22;2896;53.500;10.020;2022-07-22T02:49:27;16.90;99.90
5743;DHT22;2896;53.500;10.020;2022-07-22T02:51:53;16.90;99.90
5743;DHT22;2896;53.500;10.020;2022-07-22T02:54:20;16.90;99.90
5743;DHT22;2896;53.500;10.020;2022-07-22T02:56:47;16.80;99.90
5743;DHT22;2896;53.500;10.020;2022-07-22T02:59:14;16.90;99.90
5743;DHT22;2896;53.500;10.020;2022-07-22T03:01:41;16.80;99.90
5743;DHT22;2896;53.500;10.020;2022-07-22T03:04:09;16.80;99.90
5743;DHT22;2896;53.500;10.020;2022-07-22T03:06:36;16.80;99.90
5743;DHT22;2896;53.500;10.020;2022-07-22T03:09:02;16.80;99.90
5743;DHT22;2896;53.500;10.020;2022-07-22T03:11:30;16.80;99.90
5743;DHT22;2896;53.500;10.020;2022-07-22T03:13:56;16.80;99.90
5743;DHT22;2896;53.500;10.020;2022-07-22T03:16:23;16.80;99.90
5743;DHT22;2896;53.500;10.020;2022-07-22T03:18:49;16.80;99.90
5743;DHT22;2896;53.500;10.020;2022-07-22T03:21:17;16.80;99.90
5743;DHT22;2896;53.500;10.020;2022-07-22T03:23:44;16.80;99.90
5743;DHT22;2896;53.500;10.020;2022-07-22T03:26:10;16.80;99.90
5743;DHT22;2896;53.500;10.020;2022-07-22T03:28:37;16.80;99.90
5743;DHT22;2896;53.500;10.020;2022-07-22T03:31:04;16.70;99.90
5743;DHT22;2896;53.500;10.020;2022-07-22T03:33:30;18.20;99.90
5743;DHT22;2896;53.500;10.020;2022-07-22T03:35:57;16.80;99.90
5743;DHT22;2896;53.500;10.020;2022-07-22T03:38:25;16.80;99.90
5743;DHT22;2896;53.500;10.020;2022-07-22T03:40:52;16.80;99.90
5743;DHT22;2896;53.500;10.020;2022-07-22T03:43:21;16.70;99.90
5743;DHT22;2896;53.500;10.020;2022-07-22T03:45:48;16.60;99.90
5743;DHT22;2896;53.500;10.020;2022-07-22T03:48:14;16.70;99.90
5743;DHT22;2896;53.500;10.020;2022-07-22T03:50:41;16.70;99.90
5743;DHT22;2896;53.500;10.020;2022-07-22T03:53:07;16.70;99.90
5743;DHT22;2896;53.500;10.020;2022-07-22T03:55:37;16.70;99.90
5743;DHT22;2896;53.500;10.020;2022-07-22T03:58:03;16.70;99.90
5743;DHT22;2896;53.500;10.020;2022-07-22T04:00:30;16.70;99.90
5743;DHT22;2896;53.500;10.020;2022-07-22T04:02:57;16.60;99.90
5743;DHT22;2896;53.500;10.020;2022-07-22T04:05:23;16.60;99.90
5743;DHT22;2896;53.500;10.020;2022-07-22T04:07:50;16.60;99.90
5743;DHT22;2896;53.500;10.020;2022-07-22T04:10:16;16.50;99.90
5743;DHT22;2896;53.500;10.020;2022-07-22T04:12:44;16.50;99.90
5743;DHT22;2896;53.500;10.020;2022-07-22T04:15:11;16.50;99.90
5743;DHT22;2896;53.500;10.020;2022-07-22T04:17:38;16.50;99.90
5743;DHT22;2896;53.500;10.020;2022-07-22T04:20:05;15.70;99.90
5743;DHT22;2896;53.500;10.020;2022-07-22T04:22:32;16.50;99.90
5743;DHT22;2896;53.500;10.020;2022-07-22T04:24:59;16.60;1.00
5743;DHT22;2896;53.500;10.020;2022-07-22T04:27:25;16.50;99.90
5743;DHT22;2896;53.500;10.020;2022-07-22T04:29:53;16.60;1.00
5743;DHT22;2896;53.500;10.020;2022-07-22T04:32:20;16.60;1.00
5743;DHT22;2896;53.500;10.020;2022-07-22T04:34:46;16.60;1.00
5743;DHT22;2896;53.500;10.020;2022-07-22T04:37:13;16.50;1.00
5743;DHT22;2896;53.500;10.020;2022-07-22T04:39:40;16.50;1.00
5743;DHT22;2896;53.500;10.020;2022-07-22T04:42:06;16.50;1.00
5743;DHT22;2896;53.500;10.020;2022-07-22T04:44:33;16.50;1.00
5743;DHT22;2896;53.500;10.020;2022-07-22T04:47:01;16.50;1.00
5743;DHT22;2896;53.500;10.020;2022-07-22T04:49:28;16.50;1.00
5743;DHT22;2896;53.500;10.020;2022-07-22T04:51:54;16.50;1.00
5743;DHT22;2896;53.500;10.020;2022-07-22T04:54:21;16.50;1.00
5743;DHT22;2896;53.500;10.020;2022-07-22T04:56:48;16.50;1.00
5743;DHT22;2896;53.500;10.020;2022-07-22T04:59:14;16.60;1.00
5743;DHT22;2896;53.500;10.020;2022-07-22T05:01:41;16.60;1.00
5743;DHT22;2896;53.500;10.020;2022-07-22T05:04:09;16.50;1.00
5743;DHT22;2896;53.500;10.020;2022-07-22T05:06:35;16.50;1.00
5743;DHT22;2896;53.500;10.020;2022-07-22T05:09:02;16.60;1.00
5743;DHT22;2896;53.500;10.020;2022-07-22T05:11:29;16.60;1.00
5743;DHT22;2896;53.500;10.020;2022-07-22T05:13:56;16.60;1.00
5743;DHT22;2896;53.500;10.020;2022-07-22T05:16:22;16.60;1.00
5743;DHT22;2896;53.500;10.020;2022-07-22T05:18:49;16.60;1.00
5743;DHT22;2896;53.500;10.020;2022-07-22T05:21:17;16.70;1.00
5743;DHT22;2896;53.500;10.020;2022-07-22T05:23:43;16.70;1.00
5743;DHT22;2896;53.500;10.020;2022-07-22T05:26:10;16.80;99.90
5743;DHT22;2896;53.500;10.020;2022-07-22T05:28:37;16.70;99.90
5743;DHT22;2896;53.500;10.020;2022-07-22T05:31:03;16.60;99.90
5743;DHT22;2896;53.500;10.020;2022-07-22T05:33:30;16.60;99.90
5743;DHT22;2896;53.500;10.020;2022-07-22T05:35:57;16.50;99.90
5743;DHT22;2896;53.500;10.020;2022-07-22T05:38:25;16.40;99.90
5743;DHT22;2896;53.500;10.020;2022-07-22T05:40:51;16.40;99.90
5743;DHT22;2896;53.500;10.020;2022-07-22T05:43:19;16.40;1.00
5743;DHT22;2896;53.500;10.020;2022-07-22T05:45:45;16.50;1.00
5743;DHT22;2896;53.500;10.020;2022-07-22T05:48:12;16.50;1.00
5743;DHT22;2896;53.500;10.020;2022-07-22T05:50:38;16.40;99.90
5743;DHT22;2896;53.500;10.020;2022-07-22T05:53:05;16.50;1.00
5743;DHT22;2896;53.500;10.020;2022-07-22T05:55:33;16.60;1.00
5743;DHT22;2896;53.500;10.020;2022-07-22T05:57:59;16.70;1.00
5743;DHT22;2896;53.500;10.020;2022-07-22T06:00:26;16.80;99.90
5743;DHT22;2896;53.500;10.020;2022-07-22T06:02:53;16.90;99.90
5743;DHT22;2896;53.500;10.020;2022-07-22T06:05:19;17.00;99.90
5743;DHT22;2896;53.500;10.020;2022-07-22T06:07:46;17.00;99.90
5743;DHT22;2896;53.500;10.020;2022-07-22T06:10:13;17.10;99.90
5743;DHT22;2896;53.500;10.020;2022-07-22T06:12:41;17.10;99.90
5743;DHT22;2896;53.500;10.020;2022-07-22T06:15:08;17.10;99.90
5743;DHT22;2896;53.500;10.020;2022-07-22T06:17:35;17.00;99.90
5743;DHT22;2896;53.500;10.020;2022-07-22T06:20:02;17.20;99.90
5743;DHT22;2896;53.500;10.020;2022-07-22T06:22:29;17.30;99.90
5743;DHT22;2896;53.500;10.020;2022-07-22T06:24:55;17.40;99.90
5743;DHT22;2896;53.500;10.020;2022-07-22T06:27:24;17.50;99.90
5743;DHT22;2896;53.500;10.020;2022-07-22T06:29:52;17.50;99.90
5743;DHT22;2896;53.500;10.020;2022-07-22T06:32:19;17.70;99.90
5743;DHT22;2896;53.500;10.020;2022-07-22T06:34:46;17.70;99.90
5743;DHT22;2896;53.500;10.020;2022-07-22T06:37:12;17.70;99.90
5743;DHT22;2896;53.500;10.020;2022-07-22T06:39:39;17.70;99.90
5743;DHT22;2896;53.500;10.020;2022-07-22T06:42:06;17.70;99.90
5743;DHT22;2896;53.500;10.020;2022-07-22T06:44:33;17.80;99.90
5743;DHT22;2896;53.500;10.020;2022-07-22T06:47:00;18.00;99.90
5743;DHT22;2896;53.500;10.020;2022-07-22T06:49:27;18.20;99.90
5743;DHT22;2896;53.500;10.020;2022-07-22T06:51:54;18.30;99.90
5743;DHT22;2896;53.500;10.020;2022-07-22T06:54:20;18.30;99.90
5743;DHT22;2896;53.500;10.020;2022-07-22T06:56:47;18.50;99.90
5743;DHT22;2896;53.500;10.020;2022-07-22T06:59:13;18.50;99.90
5743;DHT22;2896;53.500;10.020;2022-07-22T07:01:40;18.60;99.90
5743;DHT22;2896;53.500;10.020;2022-07-22T07:04:08;18.70;99.90
5743;DHT22;2896;53.500;10.020;2022-07-22T07:06:35;18.50;99.90
5743;DHT22;2896;53.500;10.020;2022-07-22T07:09:02;18.50;99.90
5743;DHT22;2896;53.500;10.020;2022-07-22T07:11:29;18.60;99.90
5743;DHT22;2896;53.500;10.020;2022-07-22T07:13:55;18.50;99.90
5743;DHT22;2896;53.500;10.020;2022-07-22T07:16:22;18.50;99.90
5743;DHT22;2896;53.500;10.020;2022-07-22T07:18:48;18.70;99.90
5743;DHT22;2896;53.500;10.020;2022-07-22T07:21:16;18.70;99.90
5743;DHT22;2896;53.500;10.020;2022-07-22T07:23:43;18.90;99.90
5743;DHT22;2896;53.500;10.020;2022-07-22T07:26:10;19.10;99.90
5743;DHT22;2896;53.500;10.020;2022-07-22T07:28:36;19.10;99.90
5743;DHT22;2896;53.500;10.020;2022-07-22T07:31:03;19.10;99.90
5743;DHT22;2896;53.500;10.020;2022-07-22T07:33:30;19.10;99.90
5743;DHT22;2896;53.500;10.020;2022-07-22T07:35:56;19.00;99.90
5743;DHT22;2896;53.500;10.020;2022-07-22T07:38:24;18.90;99.90
5743;DHT22;2896;53.500;10.020;2022-07-22T07:40:51;19.00;99.90
5743;DHT22;2896;53.500;10.020;2022-07-22T07:43:18;19.00;99.90
5743;DHT22;2896;53.500;10.020;2022-07-22T07:45:45;19.10;99.90
5743;DHT22;2896;53.500;10.020;2022-07-22T07:48:12;19.10;99.90
5743;DHT22;2896;53.500;10.020;2022-07-22T07:50:39;19.30;99.90
5743;DHT22;2896;53.500;10.020;2022-07-22T07:53:05;19.20;99.90
5743;DHT22;2896;53.500;10.020;2022-07-22T07:55:33;19.20;99.90
5743;DHT22;2896;53.500;10.020;2022-07-22T07:58:03;19.20;99.90
5743;DHT22;2896;53.500;10.020;2022-07-22T08:00:29;19.30;99.90
5743;DHT22;2896;53.500;10.020;2022-07-22T08:02:57;19.30;99.90
5743;DHT22;2896;53.500;10.020;2022-07-22T08:05:24;19.20;99.90
5743;DHT22;2896;53.500;10.020;2022-07-22T08:07:51;19.10;99.90
5743;DHT22;2896;53.500;10.020;2022-07-22T08:10:18;19.10;99.90
5743;DHT22;2896;53.500;10.020;2022-07-22T08:12:47;19.50;99.90
5743;DHT22;2896;53.500;10.020;2022-07-22T08:15:14;19.60;99.90
5743;DHT22;2896;53.500;10.020;2022-07-22T08:17:41;19.60;99.90
5743;DHT22;2896;53.500;10.020;2022-07-22T08:20:08;19.80;99.90
5743;DHT22;2896;53.500;10.020;2022-07-22T08:22:35;20.00;99.90
5743;DHT22;2896;53.500;10.020;2022-07-22T08:25:02;20.10;99.90
5743;DHT22;2896;53.500;10.020;2022-07-22T08:27:29;20.50;99.90
5743;DHT22;2896;53.500;10.020;2022-07-22T08:29:57;20.60;99.90
5743;DHT22;2896;53.500;10.020;2022-07-22T08:32:23;20.50;99.90
5743;DHT22;2896;53.500;10.020;2022-07-22T08:34:50;20.50;99.90
5743;DHT22;2896;53.500;10.020;2022-07-22T08:37:17;20.40;99.90
5743;DHT22;2896;53.500;10.020;2022-07-22T08:39:43;20.20;99.90
5743;DHT22;2896;53.500;10.020;2022-07-22T08:42:10;20.00;99.90
5743;DHT22;2896;53.500;10.020;2022-07-22T08:44:39;19.90;99.90
5743;DHT22;2896;53.500;10.020;2022-07-22T08:47:07;19.70;99.90
5743;DHT22;2896;53.500;10.020;2022-07-22T08:49:34;19.70;99.90
5743;DHT22;2896;53.500;10.020;2022-07-22T08:52:00;19.70;99.90
5743;DHT22;2896;53.500;10.020;2022-07-22T08:54:28;19.90;99.90
5743;DHT22;2896;53.500;10.020;2022-07-22T08:56:54;19.90;99.90
5743;DHT22;2896;53.500;10.020;2022-07-22T08:59:21;20.00;99.90
5743;DHT22;2896;53.500;10.020;2022-07-22T09:02:05;20.00;99.90
5743;DHT22;2896;53.500;10.020;2022-07-22T09:04:50;20.30;99.90
5743;DHT22;2896;53.500;10.020;2022-07-22T09:07:24;20.60;99.90
5743;DHT22;2896;53.500;10.020;2022-07-22T09:09:51;21.40;99.90
5743;DHT22;2896;53.500;10.020;2022-07-22T09:12:17;21.50;99.90
5743;DHT22;2896;53.500;10.020;2022-07-22T09:14:45;21.50;99.90
5743;DHT22;2896;53.500;10.020;2022-07-22T09:17:26;21.70;99.90
5743;DHT22;2896;53.500;10.020;2022-07-22T09:19:56;21.60;99.90
5743;DHT22;2896;53.500;10.020;2022-07-22T09:22:34;21.50;99.90
5743;DHT22;2896;53.500;10.020;2022-07-22T09:25:18;21.20;99.90
5743;DHT22;2896;53.500;10.020;2022-07-22T09:27:45;20.80;99.90
5743;DHT22;2896;53.500;10.020;2022-07-22T09:30:14;20.90;99.90
5743;DHT22;2896;53.500;10.020;2022-07-22T09:32:43;21.00;99.90
5743;DHT22;2896;53.500;10.020;2022-07-22T09:35:11;20.90;99.90
5743;DHT22;2896;53.500;10.020;2022-07-22T09:37:47;20.90;99.90
5743;DHT22;2896;53.500;10.020;2022-07-22T09:40:16;21.00;99.90
5743;DHT22;2896;53.500;10.020;2022-07-22T09:42:48;21.10;99.90
5743;DHT22;2896;53.500;10.020;2022-07-22T09:45:15;21.00;99.90
5743;DHT22;2896;53.500;10.020;2022-07-22T09:47:42;21.00;99.90
5743;DHT22;2896;53.500;10.020;2022-07-22T09:50:19;21.00;99.90
5743;DHT22;2896;53.500;10.020;2022-07-22T09:52:47;22.00;99.90
5743;DHT22;2896;53.500;10.020;2022-07-22T09:55:15;21.00;99.90
5743;DHT22;2896;53.500;10.020;2022-07-22T09:57:43;20.80;99.90
5743;DHT22;2896;53.500;10.020;2022-07-22T10:00:10;21.10;99.90
5743;DHT22;2896;53.500;10.020;2022-07-22T10:02:41;21.30;99.90
5743;DHT22;2896;53.500;10.020;2022-07-22T10:05:12;21.00;99.90
5743;DHT22;2896;53.500;10.020;2022-07-22T10:07:43;21.00;99.90
5743;DHT22;2896;53.500;10.020;2022-07-22T10:10:12;21.10;99.90
5743;DHT22;2896;53.500;10.020;2022-07-22T10:12:40;21.10;99.90
5743;DHT22;2896;53.500;10.020;2022-07-22T10:15:08;21.30;99.90
5743;DHT22;2896;53.500;10.020;2022-07-22T10:17:36;21.30;99.90
5743;DHT22;2896;53.500;10.020;2022-07-22T10:20:05;21.40;99.90
5743;DHT22;2896;53.500;10.020;2022-07-22T10:22:48;21.60;99.90
5743;DHT22;2896;53.500;10.020;2022-07-22T10:25:16;21.70;99.90
5743;DHT22;2896;53.500;10.020;2022-07-22T10:27:44;21.80;99.90
5743;DHT22;2896;53.500;10.020;2022-07-22T10:30:13;21.70;99.90
5743;DHT22;2896;53.500;10.020;2022-07-22T10:32:40;21.50;99.90
5743;DHT22;2896;53.500;10.020;2022-07-22T10:35:23;21.30;99.90
5743;DHT22;2896;53.500;10.020;2022-07-22T10:37:56;21.20;99.90
5743;DHT22;2896;53.500;10.020;2022-07-22T10:40:24;21.30;99.90
5743;DHT22;2896;53.500;10.020;2022-07-22T10:43:09;21.10;99.90
5743;DHT22;2896;53.500;10.020;2022-07-22T10:45:38;21.30;99.90
5743;DHT22;2896;53.500;10.020;2022-07-22T10:48:06;21.20;99.90
5743;DHT22;2896;53.500;10.020;2022-07-22T10:50:46;21.30;99.90
5743;DHT22;2896;53.500;10.020;2022-07-22T10:53:18;21.60;99.90
5743;DHT22;2896;53.500;10.020;2022-07-22T10:56:02;21.70;99.90
5743;DHT22;2896;53.500;10.020;2022-07-22T10:58:44;21.70;99.90
5743;DHT22;2896;53.500;10.020;2022-07-22T11:01:12;22.00;99.90
5743;DHT22;2896;53.500;10.020;2022-07-22T11:03:41;22.20;99.90
5743;DHT22;2896;53.500;10.020;2022-07-22T11:06:19;22.50;99.90
5743;DHT22;2896;53.500;10.020;2022-07-22T11:08:50;23.10;99.90
5743;DHT22;2896;53.500;10.020;2022-07-22T11:11:17;23.00;99.90
5743;DHT22;2896;53.500;10.020;2022-07-22T11:13:45;22.90;99.90
5743;DHT22;2896;53.500;10.020;2022-07-22T11:16:16;23.10;99.90
5743;DHT22;2896;53.500;10.020;2022-07-22T11:18:52;22.80;99.90
5743;DHT22;2896;53.500;10.020;2022-07-22T11:21:21;22.90;99.90
5743;DHT22;2896;53.500;10.020;2022-07-22T11:23:51;22.20;99.90
5743;DHT22;2896;53.500;10.020;2022-07-22T11:26:20;23.20;99.90
5743;DHT22;2896;53.500;10.020;2022-07-22T11:28:48;23.30;99.90
5743;DHT22;2896;53.500;10.020;2022-07-22T11:31:17;23.50;99.90
5743;DHT22;2896;53.500;10.020;2022-07-22T11:33:44;24.30;99.90
5743;DHT22;2896;53.500;10.020;2022-07-22T11:36:11;25.00;99.90
5743;DHT22;2896;53.500;10.020;2022-07-22T11:38:46;25.20;99.90
5743;DHT22;2896;53.500;10.020;2022-07-22T11:41:16;25.30;99.90
5743;DHT22;2896;53.500;10.020;2022-07-22T11:43:44;24.90;99.90
5743;DHT22;2896;53.500;10.020;2022-07-22T11:46:11;24.50;99.90
5743;DHT22;2896;53.500;10.020;2022-07-22T11:48:38;24.30;99.90
5743;DHT22;2896;53.500;10.020;2022-07-22T11:51:06;24.00;99.90
5743;DHT22;2896;53.500;10.020;2022-07-22T11:53:35;23.80;99.90
5743;DHT22;2896;53.500;10.020;2022-07-22T11:56:04;23.50;99.90
5743;DHT22;2896;53.500;10.020;2022-07-22T11:58:41;23.40;99.90
5743;DHT22;2896;53.500;10.020;2022-07-22T12:01:09;23.20;99.90
5743;DHT22;2896;53.500;10.020;2022-07-22T12:03:39;23.10;99.90
5743;DHT22;2896;53.500;10.020;2022-07-22T12:06:07;22.80;99.90
5743;DHT22;2896;53.500;10.020;2022-07-22T12:08:40;23.00;99.90
5743;DHT22;2896;53.500;10.020;2022-07-22T12:11:08;22.90;99.90
5743;DHT22;2896;53.500;10.020;2022-07-22T12:13:35;23.10;99.90
5743;DHT22;2896;53.500;10.020;2022-07-22T12:16:19;23.10;99.90
5743;DHT22;2896;53.500;10.020;2022-07-22T12:18:51;23.40;99.90
5743;DHT22;2896;53.500;10.020;2022-07-22T12:21:18;23.30;99.90
5743;DHT22;2896;53.500;10.020;2022-07-22T12:23:50;23.20;99.90
5743;DHT22;2896;53.500;10.020;2022-07-22T12:26:17;23.50;99.90
5743;DHT22;2896;53.500;10.020;2022-07-22T12:28:44;23.40;99.90
5743;DHT22;2896;53.500;10.020;2022-07-22T12:31:11;23.40;99.90
5743;DHT22;2896;53.500;10.020;2022-07-22T12:33:46;23.30;99.90
5743;DHT22;2896;53.500;10.020;2022-07-22T12:36:13;22.90;99.90
5743;DHT22;2896;53.500;10.020;2022-07-22T12:38:40;23.20;99.90
5743;DHT22;2896;53.500;10.020;2022-07-22T12:41:24;23.40;99.90
5743;DHT22;2896;53.500;10.020;2022-07-22T12:43:51;23.60;99.90
5743;DHT22;2896;53.500;10.020;2022-07-22T12:46:18;24.00;99.90
5743;DHT22;2896;53.500;10.020;2022-07-22T12:48:52;23.80;99.90
5743;DHT22;2896;53.500;10.020;2022-07-22T12:51:19;24.10;99.90
5743;DHT22;2896;53.500;10.020;2022-07-22T12:53:46;24.10;99.90
5743;DHT22;2896;53.500;10.020;2022-07-22T12:56:13;23.80;99.90
5743;DHT22;2896;53.500;10.020;2022-07-22T12:58:39;23.80;99.90
5743;DHT22;2896;53.500;10.020;2022-07-22T13:01:07;23.60;99.90
5743;DHT22;2896;53.500;10.020;2022-07-22T13:03:35;23.10;99.90
5743;DHT22;2896;53.500;10.020;2022-07-22T13:06:04;23.40;99.90
5743;DHT22;2896;53.500;10.020;2022-07-22T13:08:32;23.50;99.90
5743;DHT22;2896;53.500;10.020;2022-07-22T13:10:59;23.20;99.90
5743;DHT22;2896;53.500;10.020;2022-07-22T13:13:26;23.80;99.90
5743;DHT22;2896;53.500;10.020;2022-07-22T13:15:53;24.40;99.90
5743;DHT22;2896;53.500;10.020;2022-07-22T13:18:19;24.50;99.90
5743;DHT22;2896;53.500;10.020;2022-07-22T13:20:46;24.90;99.90
5743;DHT22;2896;53.500;10.020;2022-07-22T13:23:14;24.50;99.90
5743;DHT22;2896;53.500;10.020;2022-07-22T13:25:41;23.80;99.90
5743;DHT22;2896;53.500;10.020;2022-07-22T13:28:08;24.00;99.90
5743;DHT22;2896;53.500;10.020;2022-07-22T13:30:34;24.10;99.90
5743;DHT22;2896;53.500;10.020;2022-07-22T13:33:02;23.80;99.90
5743;DHT22;2896;53.500;10.020;2022-07-22T13:35:29;23.80;99.90
5743;DHT22;2896;53.500;10.020;2022-07-22T13:37:55;23.60;99.90
5743;DHT22;2896;53.500;10.020;2022-07-22T13:40:24;23.60;99.90
5743;DHT22;2896;53.500;10.020;2022-07-22T13:42:51;23.50;99.90
5743;DHT22;2896;53.500;10.020;2022-07-22T13:45:17;23.80;99.90
5743;DHT22;2896;53.500;10.020;2022-07-22T13:47:45;24.10;99.90
5743;DHT22;2896;53.500;10.020;2022-07-22T13:50:12;22.90;99.90
5743;DHT22;2896;53.500;10.020;2022-07-22T13:52:38;24.60;99.90
5743;DHT22;2896;53.500;10.020;2022-07-22T13:55:05;25.10;99.90
5743;DHT22;2896;53.500;10.020;2022-07-22T13:57:33;25.40;99.90
5743;DHT22;2896;53.500;10.020;2022-07-22T14:00:00;25.10;99.90
5743;DHT22;2896;53.500;10.020;2022-07-22T14:02:27;24.70;99.90
5743;DHT22;2896;53.500;10.020;2022-07-22T14:04:54;24.40;99.90
5743;DHT22;2896;53.500;10.020;2022-07-22T14:07:21;24.50;99.90
5743;DHT22;2896;53.500;10.020;2022-07-22T14:09:47;24.70;99.90
5743;DHT22;2896;53.500;10.020;2022-07-22T14:12:14;24.70;99.90
5743;DHT22;2896;53.500;10.020;2022-07-22T14:14:43;24.80;99.90
5743;DHT22;2896;53.500;10.020;2022-07-22T14:17:10;24.50;99.90
5743;DHT22;2896;53.500;10.020;2022-07-22T14:19:37;24.60;99.90
5743;DHT22;2896;53.500;10.020;2022-07-22T14:22:03;24.60;99.90
5743;DHT22;2896;53.500;10.020;2022-07-22T14:24:30;24.40;99.90
5743;DHT22;2896;53.500;10.020;2022-07-22T14:26:57;24.00;99.90
5743;DHT22;2896;53.500;10.020;2022-07-22T14:29:24;23.60;99.90
5743;DHT22;2896;53.500;10.020;2022-07-22T14:31:52;23.60;99.90
5743;DHT22;2896;53.500;10.020;2022-07-22T14:34:19;23.30;99.90
5743;DHT22;2896;53.500;10.020;2022-07-22T14:36:47;23.40;99.90
5743;DHT22;2896;53.500;10.020;2022-07-22T14:39:14;23.20;99.90
5743;DHT22;2896;53.500;10.020;2022-07-22T14:41:40;23.30;99.90
5743;DHT22;2896;53.500;10.020;2022-07-22T14:44:07;23.30;99.90
5743;DHT22;2896;53.500;10.020;2022-07-22T14:46:34;23.40;99.90
5743;DHT22;2896;53.500;10.020;2022-07-22T14:49:02;23.60;99.90
5743;DHT22;2896;53.500;10.020;2022-07-22T14:51:28;23.60;99.90
5743;DHT22;2896;53.500;10.020;2022-07-22T14:53:55;23.80;99.90
5743;DHT22;2896;53.500;10.020;2022-07-22T14:56:22;23.80;99.90
5743;DHT22;2896;53.500;10.020;2022-07-22T14:58:49;24.00;99.90
5743;DHT22;2896;53.500;10.020;2022-07-22T15:01:15;24.20;99.90
5743;DHT22;2896;53.500;10.020;2022-07-22T15:03:42;25.10;99.90
5743;DHT22;2896;53.500;10.020;2022-07-22T15:06:10;25.30;99.90
5743;DHT22;2896;53.500;10.020;2022-07-22T15:08:37;25.10;99.90
5743;DHT22;2896;53.500;10.020;2022-07-22T15:11:03;24.80;99.90
5743;DHT22;2896;53.500;10.020;2022-07-22T15:13:31;24.70;99.90
5743;DHT22;2896;53.500;10.020;2022-07-22T15:15:58;24.70;99.90
5743;DHT22;2896;53.500;10.020;2022-07-22T15:18:24;24.40;99.90
5743;DHT22;2896;53.500;10.020;2022-07-22T15:20:51;24.40;99.90
5743;DHT22;2896;53.500;10.020;2022-07-22T15:23:22;24.30;99.90
5743;DHT22;2896;53.500;10.020;2022-07-22T15:25:50;24.30;99.90
5743;DHT22;2896;53.500;10.020;2022-07-22T15:28:17;24.10;99.90
5743;DHT22;2896;53.500;10.020;2022-07-22T15:30:44;24.00;99.90
5743;DHT22;2896;53.500;10.020;2022-07-22T15:33:10;24.20;99.90
5743;DHT22;2896;53.500;10.020;2022-07-22T15:35:37;24.20;99.90
5743;DHT22;2896;53.500;10.020;2022-07-22T15:38:04;24.50;99.90
5743;DHT22;2896;53.500;10.020;2022-07-22T15:40:32;24.40;99.90
5743;DHT22;2896;53.500;10.020;2022-07-22T15:42:58;23.60;99.90
5743;DHT22;2896;53.500;10.020;2022-07-22T15:45:25;23.60;99.90
5743;DHT22;2896;53.500;10.020;2022-07-22T15:47:52;23.30;99.90
5743;DHT22;2896;53.500;10.020;2022-07-22T15:50:19;23.10;99.90
5743;DHT22;2896;53.500;10.020;2022-07-22T15:52:47;23.40;99.90
5743;DHT22;2896;53.500;10.020;2022-07-22T15:55:13;23.20;99.90